Aviation Digital Data Service (ADDS)

Output produced by METARs form (1103 UTC 30 April 2017)
found at http://www.aviationweather.gov/adds/metars/
 
FMCH 301000Z VRB15KT 9999 FEW020CB BKN090 31/20 Q1014 NOSIG
TAF FMCH 301100Z 3012/0118 17012KT 9999 FEW020CB BKN030 
     PROB40 
     TEMPO 3012/3018 19015G215KT 4000 TSRA SHRA 
     BECMG 3016/3018 09005KT 
     BECMG 0105/0107 20012KT